createdAt,value
2022-12-04T00:02:04.003Z,98813.91
2022-12-04T00:04:50.837Z,98806.91
2022-12-04T00:07:37.568Z,98820.81
2022-12-04T00:10:24.325Z,98821.72
2022-12-04T00:13:10.892Z,98793.50
2022-12-04T00:15:57.254Z,98792.13
2022-12-04T00:18:44.547Z,98807.88
2022-12-04T00:21:31.597Z,98813.53
2022-12-04T00:24:18.277Z,98802.34
2022-12-04T00:27:04.798Z,98800.03
2022-12-04T00:29:51.238Z,98776.13
2022-12-04T00:32:37.900Z,98788.47
2022-12-04T00:35:26.232Z,98795.69
2022-12-04T00:38:12.949Z,98804.66
2022-12-04T00:41:00.818Z,98778.28
2022-12-04T00:43:47.408Z,98789.31
2022-12-04T00:46:34.137Z,98786.31
2022-12-04T00:49:20.436Z,98793.06
2022-12-04T00:52:07.145Z,98796.13
2022-12-04T00:54:54.074Z,98796.94
2022-12-04T00:57:40.915Z,98806.28
2022-12-04T01:00:27.618Z,98795.13
2022-12-04T01:03:14.386Z,98808.53
2022-12-04T01:06:01.633Z,98798.69
2022-12-04T01:08:49.843Z,98797.16
2022-12-04T01:11:36.541Z,98782.03
2022-12-04T01:14:23.207Z,98784.69
2022-12-04T01:17:09.673Z,98782.38
2022-12-04T01:19:56.310Z,98783.94
2022-12-04T01:22:43.098Z,98786.41
2022-12-04T01:25:29.614Z,98783.94
2022-12-04T01:28:16.161Z,98772.47
2022-12-04T01:31:09.146Z,98775.91
2022-12-04T01:33:55.809Z,98782.75
2022-12-04T01:36:42.112Z,98790.56
2022-12-04T01:39:28.609Z,98789.50
2022-12-04T01:42:15.854Z,98788.31
2022-12-04T01:45:40.106Z,98793.41
2022-12-04T01:48:30.985Z,98790.78
2022-12-04T01:51:20.981Z,98798.16
2022-12-04T01:54:11.129Z,98793.06
2022-12-04T01:56:59.754Z,98788.66
2022-12-04T01:59:57.542Z,98777.47
2022-12-04T02:02:47.689Z,98784.09
2022-12-04T02:05:34.448Z,98785.44
2022-12-04T02:08:21.159Z,98787.28
2022-12-04T02:11:25.961Z,98785.84
2022-12-04T02:14:50.927Z,98777.88
2022-12-04T02:17:54.254Z,98794.88
2022-12-04T02:20:55.603Z,98792.16
2022-12-04T02:24:04.000Z,98786.75
2022-12-04T02:27:01.076Z,98788.22
2022-12-04T02:29:59.053Z,98789.16
2022-12-04T02:33:11.442Z,98781.31
2022-12-04T02:36:07.739Z,98778.22
2022-12-04T02:38:57.119Z,98776.81
2022-12-04T02:42:14.164Z,98769.28
2022-12-04T02:45:09.055Z,98762.63
2022-12-04T02:47:56.885Z,98760.34
2022-12-04T02:50:47.258Z,98765.22
2022-12-04T02:53:38.152Z,98762.19
2022-12-04T02:56:28.847Z,98772.38
2022-12-04T02:59:20.386Z,98765.28
2022-12-04T03:02:19.711Z,98757.63
2022-12-04T03:05:21.148Z,98757.22
2022-12-04T03:08:14.357Z,98759.63
2022-12-04T03:11:01.965Z,98764.53
2022-12-04T03:13:56.903Z,98760.81
2022-12-04T03:16:44.205Z,98750.50
2022-12-04T03:19:42.844Z,98739.34
2022-12-04T03:22:31.655Z,98740.84
2022-12-04T03:25:25.938Z,98745.94
2022-12-04T03:28:31.487Z,98727.97
2022-12-04T03:31:24.965Z,98713.50
2022-12-04T03:34:15.675Z,98740.09
2022-12-04T03:37:13.742Z,98740.31
2022-12-04T03:40:15.545Z,98730.81
2022-12-04T03:43:20.273Z,98735.16
2022-12-04T03:46:12.803Z,98725.72
2022-12-04T03:49:12.605Z,98725.44
2022-12-04T03:52:07.310Z,98696.22
2022-12-04T03:55:00.434Z,98724.94
2022-12-04T03:57:48.856Z,98716.50
2022-12-04T04:00:39.512Z,98726.59
2022-12-04T04:03:34.140Z,98727.41
2022-12-04T04:06:39.084Z,98722.16
2022-12-04T04:09:29.297Z,98739.53
2022-12-04T04:12:20.916Z,98736.00
2022-12-04T04:15:31.309Z,98735.84
2022-12-04T04:18:36.781Z,98730.19
2022-12-04T04:21:47.121Z,98746.31
2022-12-04T04:24:36.156Z,98736.69
2022-12-04T04:27:22.898Z,98747.06
2022-12-04T04:30:10.040Z,98750.72
2022-12-04T04:33:11.432Z,98763.78
2022-12-04T04:36:07.785Z,98752.75
2022-12-04T04:39:01.909Z,98762.81
2022-12-04T04:41:56.560Z,98756.41
2022-12-04T04:45:04.404Z,98762.56
2022-12-04T04:48:12.221Z,98762.28
2022-12-04T04:51:00.844Z,98753.03
2022-12-04T04:53:52.203Z,98749.94
2022-12-04T04:56:46.446Z,98751.56
2022-12-04T04:59:34.642Z,98746.81
2022-12-04T05:02:21.175Z,98751.63
2022-12-04T05:05:07.819Z,98746.53
2022-12-04T05:07:54.862Z,98740.09
2022-12-04T05:10:41.652Z,98753.03
2022-12-04T05:13:29.486Z,98746.22
2022-12-04T05:16:16.964Z,98753.00
2022-12-04T05:19:21.819Z,98752.84
2022-12-04T05:22:09.611Z,98752.75
2022-12-04T05:24:56.312Z,98757.94
2022-12-04T05:27:43.420Z,98764.00
2022-12-04T05:30:29.778Z,98753.88
2022-12-04T05:33:16.558Z,98746.38
2022-12-04T05:36:06.094Z,98741.53
2022-12-04T05:38:52.635Z,98739.63
2022-12-04T05:41:39.177Z,98750.56
2022-12-04T05:44:26.276Z,98749.47
2022-12-04T05:47:12.784Z,98748.69
2022-12-04T05:49:59.147Z,98732.66
2022-12-04T05:52:45.424Z,98718.88
2022-12-04T05:55:31.824Z,98735.28
2022-12-04T05:58:18.258Z,98748.44
2022-12-04T06:01:13.104Z,98748.19
2022-12-04T06:03:59.469Z,98744.81
2022-12-04T06:06:46.072Z,98747.53
2022-12-04T06:09:32.635Z,98744.81
2022-12-04T06:12:19.435Z,98745.22
2022-12-04T06:15:06.314Z,98744.28
2022-12-04T06:17:52.871Z,98754.72
2022-12-04T06:20:39.125Z,98759.50
2022-12-04T06:23:25.824Z,98752.16
2022-12-04T06:26:12.692Z,98763.00
2022-12-04T06:28:59.955Z,98746.88
2022-12-04T06:31:46.734Z,98739.09
2022-12-04T06:34:33.651Z,98754.84
2022-12-04T06:37:23.295Z,98754.47
2022-12-04T06:40:10.460Z,98748.19
2022-12-04T06:42:57.609Z,98740.69
2022-12-04T06:45:44.090Z,98748.84
2022-12-04T06:48:31.699Z,98748.69
2022-12-04T06:51:20.845Z,98737.50
2022-12-04T06:54:08.000Z,98753.44
2022-12-04T06:56:54.601Z,98746.53
2022-12-04T06:59:41.251Z,98745.56
2022-12-04T07:02:27.495Z,98756.56
2022-12-04T07:05:14.975Z,98755.81
2022-12-04T07:08:01.843Z,98763.13
2022-12-04T07:10:48.561Z,98764.16
2022-12-04T07:13:34.884Z,98736.38
2022-12-04T07:16:23.088Z,98760.00
2022-12-04T07:19:11.718Z,98763.66
2022-12-04T07:21:58.273Z,98755.53
2022-12-04T07:24:44.624Z,98766.13
2022-12-04T07:27:32.913Z,98764.44
2022-12-04T07:30:19.539Z,98741.16
2022-12-04T07:33:06.328Z,98753.38
2022-12-04T07:35:58.181Z,98744.69
2022-12-04T07:38:45.260Z,98752.81
2022-12-04T07:41:31.761Z,98763.50
2022-12-04T07:44:24.813Z,98761.22
2022-12-04T07:47:11.374Z,98745.25
2022-12-04T07:49:58.192Z,98754.69
2022-12-04T07:52:46.075Z,98753.66
2022-12-04T07:55:32.538Z,98754.53
2022-12-04T07:58:19.335Z,98762.03
2022-12-04T08:01:08.774Z,98736.91
2022-12-04T08:03:57.129Z,98763.94
2022-12-04T08:06:43.734Z,98765.97
2022-12-04T08:09:30.184Z,98776.28
2022-12-04T08:12:16.452Z,98772.50
2022-12-04T08:15:03.367Z,98759.56
2022-12-04T08:17:49.827Z,98761.19
2022-12-04T08:20:36.313Z,98765.28
2022-12-04T08:23:22.671Z,98764.25
2022-12-04T08:26:10.344Z,98757.13
2022-12-04T08:28:57.863Z,98757.66
2022-12-04T08:31:44.391Z,98748.84
2022-12-04T08:34:30.980Z,98765.97
2022-12-04T08:37:18.289Z,98763.41
2022-12-04T08:40:05.180Z,98766.16
2022-12-04T08:42:51.775Z,98761.44
2022-12-04T08:46:01.898Z,98766.66
2022-12-04T08:48:49.036Z,98772.50
2022-12-04T08:51:35.967Z,98769.13
2022-12-04T08:54:22.775Z,98780.25
2022-12-04T08:57:09.057Z,98779.91
2022-12-04T08:59:55.794Z,98779.59
2022-12-04T09:02:42.372Z,98799.28
2022-12-04T09:05:30.012Z,98785.84
2022-12-04T09:08:17.800Z,98795.88
2022-12-04T09:11:13.098Z,98800.03
2022-12-04T09:14:00.904Z,98800.59
2022-12-04T09:16:47.594Z,98798.25
2022-12-04T09:19:35.306Z,98798.16
2022-12-04T09:22:21.602Z,98779.31
2022-12-04T09:25:08.063Z,98792.75
2022-12-04T09:27:59.122Z,98809.72
2022-12-04T09:30:46.067Z,98797.03
2022-12-04T09:33:33.196Z,98788.88
2022-12-04T09:36:20.515Z,98788.78
2022-12-04T09:39:07.215Z,98778.47
2022-12-04T09:42:18.059Z,98774.56
2022-12-04T09:45:13.677Z,98768.97
2022-12-04T09:48:01.390Z,98765.13
2022-12-04T09:50:49.502Z,98746.09
2022-12-04T09:54:01.447Z,98746.69
2022-12-04T09:57:00.247Z,98745.09
2022-12-04T09:59:47.564Z,98738.53
2022-12-04T10:02:38.655Z,98738.53
2022-12-04T10:05:44.144Z,98737.59
2022-12-04T10:08:42.217Z,98726.31
2022-12-04T10:11:50.829Z,98715.28
2022-12-04T10:15:04.339Z,98711.97
2022-12-04T10:18:23.303Z,98711.13
2022-12-04T10:21:34.631Z,98698.41
2022-12-04T10:24:31.061Z,98695.75
2022-12-04T10:27:29.980Z,98692.44
2022-12-04T10:30:21.297Z,98692.13
2022-12-04T10:33:19.307Z,98689.56
2022-12-04T10:36:07.054Z,98693.91
2022-12-04T10:39:06.252Z,98692.94
2022-12-04T10:42:05.654Z,98692.19
2022-12-04T10:44:53.243Z,98685.38
2022-12-04T10:47:45.239Z,98675.31
2022-12-04T10:50:31.867Z,98695.78
2022-12-04T10:53:27.380Z,98690.66
2022-12-04T10:56:23.422Z,98712.00
2022-12-04T10:59:15.616Z,98719.63
2022-12-04T11:02:22.529Z,98725.47
2022-12-04T11:05:34.843Z,98718.41
2022-12-04T11:08:24.904Z,98690.69
2022-12-04T11:11:14.623Z,98723.09
2022-12-04T11:14:14.529Z,98710.13
2022-12-04T11:17:06.810Z,98715.28
2022-12-04T11:20:06.094Z,98718.59
2022-12-04T11:22:57.090Z,98711.06
2022-12-04T11:25:50.885Z,98706.94
2022-12-04T11:28:42.156Z,98680.94
2022-12-04T11:31:30.591Z,98706.94
2022-12-04T11:34:24.434Z,98702.75
2022-12-04T11:37:36.482Z,98710.84
2022-12-04T11:40:26.777Z,98708.25
2022-12-04T11:43:15.033Z,98707.84
2022-12-04T11:46:06.950Z,98688.00
2022-12-04T11:48:53.514Z,98689.13
2022-12-04T11:52:22.346Z,98689.13
2022-12-04T11:55:15.226Z,98687.69
2022-12-04T11:58:27.325Z,98689.41
2022-12-04T12:01:28.393Z,98701.25
2022-12-04T12:04:45.378Z,98703.94
2022-12-04T12:07:43.646Z,98708.31
2022-12-04T12:10:46.649Z,98704.03
2022-12-04T12:13:52.373Z,98703.34
2022-12-04T12:16:57.633Z,98698.97
2022-12-04T12:20:14.815Z,98694.50
2022-12-04T12:23:44.493Z,98687.00
2022-12-04T12:27:25.292Z,98676.53
2022-12-04T12:30:21.925Z,98664.88
2022-12-04T12:33:08.507Z,98670.75
2022-12-04T12:36:03.287Z,98661.75
2022-12-04T12:39:12.012Z,98669.84
2022-12-04T12:42:01.620Z,98673.75
2022-12-04T12:45:33.786Z,98665.59
2022-12-04T12:48:35.164Z,98666.88
2022-12-04T12:51:37.550Z,98663.25
2022-12-04T12:54:26.986Z,98654.63
2022-12-04T12:57:36.303Z,98660.59
2022-12-04T13:00:24.340Z,98659.53
2022-12-04T13:03:10.436Z,98655.50
2022-12-04T13:06:03.616Z,98645.13
2022-12-04T13:09:14.100Z,98620.38
2022-12-04T13:12:08.950Z,98610.69
2022-12-04T13:14:55.485Z,98635.88
2022-12-04T13:17:44.342Z,98641.91
2022-12-04T13:20:39.167Z,98644.56
2022-12-04T13:24:13.392Z,98642.63
2022-12-04T13:27:21.673Z,98638.19
2022-12-04T13:30:22.993Z,98636.75
2022-12-04T13:33:35.124Z,98644.59
2022-12-04T13:36:34.142Z,98662.47
2022-12-04T13:39:35.758Z,98659.13
2022-12-04T13:42:26.046Z,98636.72
2022-12-04T13:45:27.418Z,98665.56
2022-12-04T13:48:14.170Z,98674.00
2022-12-04T13:51:15.045Z,98674.88
2022-12-04T13:54:20.520Z,98680.00
2022-12-04T13:57:16.799Z,98680.00
2022-12-04T14:00:08.126Z,98678.34
2022-12-04T14:03:07.714Z,98680.63
2022-12-04T14:05:54.909Z,98679.66
2022-12-04T14:08:43.602Z,98659.91
2022-12-04T14:11:41.988Z,98672.50
2022-12-04T14:14:35.947Z,98657.16
2022-12-04T14:17:30.997Z,98656.19
2022-12-04T14:20:34.319Z,98639.91
2022-12-04T14:23:26.611Z,98647.66
2022-12-04T14:26:21.157Z,98641.00
2022-12-04T14:29:30.325Z,98637.69
2022-12-04T14:32:26.817Z,98615.28
2022-12-04T14:35:21.768Z,98630.63
2022-12-04T14:38:18.652Z,98631.50
2022-12-04T14:41:05.062Z,98639.00
2022-12-04T14:43:51.818Z,98647.53
2022-12-04T14:46:44.183Z,98633.97
2022-12-04T14:49:53.835Z,98655.34
2022-12-04T14:53:05.556Z,98655.28
2022-12-04T14:56:07.412Z,98647.59
2022-12-04T14:58:55.279Z,98638.84
2022-12-04T15:01:41.983Z,98636.75
2022-12-04T15:04:35.370Z,98620.31
2022-12-04T15:07:23.831Z,98622.47
2022-12-04T15:10:39.192Z,98635.25
2022-12-04T15:13:31.793Z,98641.00
2022-12-04T15:16:20.740Z,98660.03
2022-12-04T15:19:18.057Z,98666.72
2022-12-04T15:22:11.653Z,98672.19
2022-12-04T15:24:59.254Z,98675.50
2022-12-04T15:27:48.345Z,98674.50
2022-12-04T15:30:39.296Z,98679.75
2022-12-04T15:33:30.357Z,98687.00
2022-12-04T15:36:43.004Z,98679.50
2022-12-04T15:39:31.913Z,98673.47
2022-12-04T15:42:18.848Z,98683.44
2022-12-04T15:45:08.503Z,98687.78
2022-12-04T15:47:55.757Z,98687.59
2022-12-04T15:50:42.565Z,98698.06
2022-12-04T15:53:34.224Z,98690.41
2022-12-04T15:56:21.740Z,98681.03
2022-12-04T15:59:17.810Z,98679.31
2022-12-04T16:02:09.330Z,98678.47
2022-12-04T16:04:56.241Z,98663.56
2022-12-04T16:07:54.160Z,98660.59
2022-12-04T16:10:40.521Z,98669.88
2022-12-04T16:13:30.282Z,98641.50
2022-12-04T16:16:20.991Z,98634.63
2022-12-04T16:19:13.531Z,98677.44
2022-12-04T16:22:02.430Z,98663.06
2022-12-04T16:24:49.507Z,98610.31
2022-12-04T16:27:35.880Z,98625.56
2022-12-04T16:30:22.036Z,98652.38
2022-12-04T16:33:12.716Z,98656.66
2022-12-04T16:35:58.967Z,98614.03
2022-12-04T16:38:45.496Z,98645.78
2022-12-04T16:41:32.081Z,98641.66
2022-12-04T16:44:18.614Z,98614.94
2022-12-04T16:47:05.776Z,98604.16
2022-12-04T16:49:53.238Z,98598.88
2022-12-04T16:52:39.995Z,98640.16
2022-12-04T16:55:36.893Z,98627.22
2022-12-04T16:58:24.188Z,98635.06
2022-12-04T17:01:36.659Z,98623.84
2022-12-04T17:04:23.055Z,98627.97
2022-12-04T17:07:09.540Z,98600.59
2022-12-04T17:09:55.736Z,98605.75
2022-12-04T17:12:42.275Z,98639.41
2022-12-04T17:15:28.664Z,98609.91
2022-12-04T17:18:20.788Z,98617.44
2022-12-04T17:21:09.630Z,98651.31
2022-12-04T17:23:56.052Z,98582.09
2022-12-04T17:26:42.339Z,98627.72
2022-12-04T17:29:28.711Z,98629.16
2022-12-04T17:32:15.812Z,98625.75
2022-12-04T17:35:02.844Z,98659.66
2022-12-04T17:37:49.487Z,98660.44
2022-12-04T17:40:36.018Z,98665.97
2022-12-04T17:43:25.227Z,98645.44
2022-12-04T17:46:16.146Z,98638.28
2022-12-04T17:49:06.844Z,98651.22
2022-12-04T17:51:53.359Z,98662.63
2022-12-04T17:54:39.626Z,98681.16
2022-12-04T17:57:25.954Z,98611.69
2022-12-04T18:00:12.364Z,98651.47
2022-12-04T18:02:58.781Z,98650.31
2022-12-04T18:05:45.222Z,98661.19
2022-12-04T18:08:31.756Z,98646.22
2022-12-04T18:11:20.692Z,98624.13
2022-12-04T18:14:12.468Z,98636.00
2022-12-04T18:16:59.344Z,98649.09
2022-12-04T18:19:45.773Z,98682.66
2022-12-04T18:22:32.549Z,98629.31
2022-12-04T18:25:19.411Z,98632.84
2022-12-04T18:28:05.806Z,98652.25
2022-12-04T18:30:53.045Z,98683.25
2022-12-04T18:33:41.686Z,98663.59
2022-12-04T18:36:30.728Z,98690.03
2022-12-04T18:39:19.607Z,98692.38
2022-12-04T18:42:06.227Z,98687.25
2022-12-04T18:44:52.466Z,98661.13
2022-12-04T18:47:39.034Z,98669.72
2022-12-04T18:50:25.281Z,98663.41
2022-12-04T18:53:11.655Z,98659.81
2022-12-04T18:56:02.274Z,98697.16
2022-12-04T18:58:49.132Z,98670.81
2022-12-04T19:01:35.705Z,98696.38
2022-12-04T19:04:24.621Z,98697.28
2022-12-04T19:07:11.189Z,98675.66
2022-12-04T19:10:12.513Z,98673.56
2022-12-04T19:12:59.020Z,98707.97
2022-12-04T19:15:47.247Z,98670.81
2022-12-04T19:18:33.856Z,98667.38
2022-12-04T19:21:20.176Z,98718.34
2022-12-04T19:24:06.880Z,98689.63
2022-12-04T19:26:53.818Z,98706.84
2022-12-04T19:29:42.456Z,98733.53
2022-12-04T19:32:28.755Z,98717.34
2022-12-04T19:35:15.441Z,98711.50
2022-12-04T19:38:01.876Z,98706.78
2022-12-04T19:40:48.401Z,98716.28
2022-12-04T19:43:34.788Z,98728.16
2022-12-04T19:46:23.296Z,98706.56
2022-12-04T19:49:12.467Z,98711.09
2022-12-04T19:51:59.218Z,98731.97
2022-12-04T19:54:45.564Z,98731.03
2022-12-04T19:57:32.319Z,98732.66
2022-12-04T20:00:19.290Z,98751.06
2022-12-04T20:03:05.876Z,98748.84
2022-12-04T20:05:52.116Z,98735.97
2022-12-04T20:08:38.972Z,98770.31
2022-12-04T20:11:28.102Z,98750.72
2022-12-04T20:14:14.643Z,98751.72
2022-12-04T20:17:03.898Z,98744.41
2022-12-04T20:19:50.280Z,98748.78
2022-12-04T20:22:36.875Z,98764.06
2022-12-04T20:25:23.825Z,98757.94
2022-12-04T20:28:14.460Z,98757.13
2022-12-04T20:31:01.205Z,98722.00
2022-12-04T20:33:49.864Z,98765.09
2022-12-04T20:36:39.567Z,98734.66
2022-12-04T20:39:26.341Z,98725.31
2022-12-04T20:42:12.469Z,98711.47
2022-12-04T20:44:58.755Z,98757.28
2022-12-04T20:47:45.172Z,98739.09
2022-12-04T20:50:32.018Z,98754.31
2022-12-04T20:53:19.144Z,98723.78
2022-12-04T20:56:05.938Z,98707.16
2022-12-04T20:58:53.484Z,98764.88
2022-12-04T21:01:40.796Z,98753.38
2022-12-04T21:04:27.401Z,98760.28
2022-12-04T21:07:13.619Z,98739.44
2022-12-04T21:10:00.366Z,98703.31
2022-12-04T21:13:05.401Z,98759.38
2022-12-04T21:16:01.272Z,98709.97
2022-12-04T21:18:47.847Z,98738.44
2022-12-04T21:21:35.877Z,98750.81
2022-12-04T21:24:24.271Z,98748.97
2022-12-04T21:27:17.185Z,98764.19
2022-12-04T21:30:07.549Z,98775.44
2022-12-04T21:32:53.962Z,98751.53
2022-12-04T21:35:40.259Z,98752.38
2022-12-04T21:38:26.772Z,98783.31
2022-12-04T21:41:33.247Z,98767.28
2022-12-04T21:44:20.943Z,98785.28
2022-12-04T21:47:07.322Z,98772.81
2022-12-04T21:49:54.395Z,98774.94
2022-12-04T21:52:40.690Z,98767.59
2022-12-04T21:55:27.251Z,98763.16
2022-12-04T21:58:13.504Z,98787.38
2022-12-04T22:00:59.812Z,98756.34
2022-12-04T22:03:46.207Z,98786.50
2022-12-04T22:06:36.341Z,98778.50
2022-12-04T22:09:22.899Z,98768.28
2022-12-04T22:15:15.478Z,98777.72
2022-12-04T22:18:03.383Z,98782.53
2022-12-04T22:20:49.911Z,98803.72
2022-12-04T22:23:36.725Z,98819.75
2022-12-04T22:26:24.005Z,98813.78
2022-12-04T22:29:42.034Z,98801.22
2022-12-04T22:32:16.925Z,98838.16
2022-12-04T22:35:03.324Z,98812.53
2022-12-04T22:37:49.652Z,98826.72
2022-12-04T22:40:37.437Z,98803.47
2022-12-04T22:43:24.051Z,98839.25
2022-12-04T22:46:11.492Z,98815.28
2022-12-04T22:48:59.029Z,98812.03
2022-12-04T22:51:45.416Z,98808.16
2022-12-04T22:54:31.776Z,98845.41
2022-12-04T22:57:18.993Z,98846.22
2022-12-04T23:00:06.691Z,98826.53
2022-12-04T23:02:53.081Z,98783.38
2022-12-04T23:05:39.576Z,98749.25
2022-12-04T23:08:26.400Z,98790.50
2022-12-04T23:11:16.396Z,98837.41
2022-12-04T23:14:05.417Z,98783.47
2022-12-04T23:16:51.785Z,98815.59
2022-12-04T23:19:38.433Z,98799.03
2022-12-04T23:22:24.668Z,98835.13
2022-12-04T23:25:10.957Z,98816.78
2022-12-04T23:27:57.540Z,98826.03
2022-12-04T23:30:46.033Z,98818.41
2022-12-04T23:33:32.425Z,98860.88
2022-12-04T23:36:19.267Z,98844.72
2022-12-04T23:39:05.500Z,98849.75
2022-12-04T23:41:51.817Z,98839.22
2022-12-04T23:44:38.181Z,98827.72
2022-12-04T23:47:25.040Z,98885.03
2022-12-04T23:50:11.572Z,98824.50
2022-12-04T23:52:58.107Z,98877.28
2022-12-04T23:55:44.491Z,98889.59
2022-12-04T23:58:31.924Z,98841.19
